createdAt,value
2022-08-10T00:04:24.283Z,97835.19
2022-08-10T00:09:50.635Z,97837.16
2022-08-10T00:15:51.947Z,97838.81
2022-08-10T00:20:56.708Z,97832.88
2022-08-10T00:26:17.469Z,97830.91
2022-08-10T00:31:57.981Z,97825.09
2022-08-10T00:37:19.941Z,97822.66
2022-08-10T00:42:40.596Z,97822.16
2022-08-10T00:48:01.553Z,97821.84
2022-08-10T00:53:22.381Z,97819.19
2022-08-10T00:58:43.394Z,97813.09
2022-08-10T01:04:57.398Z,97811.09
2022-08-10T01:10:04.457Z,97815.56
2022-08-10T01:15:48.829Z,97816.84
2022-08-10T01:21:54.313Z,97818.19
2022-08-10T01:27:31.847Z,97819.31
2022-08-10T01:33:19.204Z,97815.22
2022-08-10T01:38:54.502Z,97816.53
2022-08-10T01:44:20.062Z,97818.19
2022-08-10T01:49:40.795Z,97813.84
2022-08-10T01:55:01.367Z,97815.44
2022-08-10T02:00:22.448Z,97820.66
2022-08-10T02:05:45.697Z,97816.69
2022-08-10T02:11:07.994Z,97810.69
2022-08-10T02:16:30.540Z,97811.34
2022-08-10T02:22:15.396Z,97815.50
2022-08-10T02:27:36.302Z,97815.44
2022-08-10T02:32:59.525Z,97812.00
2022-08-10T02:38:58.064Z,97805.38
2022-08-10T02:45:23.753Z,97808.97
2022-08-10T02:50:05.519Z,97811.22
2022-08-10T02:55:52.428Z,97815.25
2022-08-10T03:01:16.694Z,97812.47
2022-08-10T03:06:44.866Z,97812.13
2022-08-10T03:12:35.200Z,97821.31
2022-08-10T03:17:58.061Z,97821.97
2022-08-10T03:23:23.453Z,97820.50
2022-08-10T03:28:45.600Z,97820.19
2022-08-10T03:34:07.211Z,97831.38
2022-08-10T03:39:43.262Z,97829.28
2022-08-10T03:45:05.840Z,97833.03
2022-08-10T03:50:51.375Z,97834.66
2022-08-10T03:56:29.838Z,97823.81
2022-08-10T04:02:45.176Z,97836.97
2022-08-10T04:07:32.557Z,97839.44
2022-08-10T04:12:53.648Z,97840.78
2022-08-10T04:18:19.570Z,97843.94
2022-08-10T04:23:52.577Z,97843.47
2022-08-10T04:29:14.578Z,97846.06
2022-08-10T04:34:37.063Z,97837.44
2022-08-10T04:39:58.181Z,97831.69
2022-08-10T04:45:18.885Z,97841.47
2022-08-10T04:50:39.493Z,97837.50
2022-08-10T04:55:59.985Z,97835.38
2022-08-10T05:01:24.365Z,97838.78
2022-08-10T05:06:45.933Z,97835.31
2022-08-10T05:12:07.621Z,97844.09
2022-08-10T05:17:28.353Z,97862.47
2022-08-10T05:22:48.976Z,97855.75
2022-08-10T05:28:09.664Z,97857.09
2022-08-10T05:33:30.267Z,97858.97
2022-08-10T05:38:51.838Z,97856.50
2022-08-10T05:44:12.821Z,97857.06
2022-08-10T05:49:34.036Z,97857.13
2022-08-10T05:54:56.110Z,97850.66
2022-08-10T06:00:36.826Z,97857.22
2022-08-10T06:06:01.137Z,97860.19
2022-08-10T06:12:27.530Z,97854.88
2022-08-10T06:17:04.194Z,97848.56
2022-08-10T06:22:27.085Z,97851.91
2022-08-10T06:27:49.004Z,97847.88
2022-08-10T06:33:10.363Z,97854.91
2022-08-10T06:38:34.056Z,97858.09
2022-08-10T06:44:01.752Z,97857.13
2022-08-10T06:49:23.374Z,97858.63
2022-08-10T06:54:45.066Z,97855.88
2022-08-10T07:00:08.120Z,97859.25
2022-08-10T07:05:30.989Z,97857.91
2022-08-10T07:10:53.167Z,97854.91
2022-08-10T07:16:15.821Z,97854.69
2022-08-10T07:21:43.628Z,97860.59
2022-08-10T07:27:06.787Z,97860.59
2022-08-10T07:32:28.721Z,97862.34
2022-08-10T07:37:52.045Z,97866.78
2022-08-10T07:43:13.829Z,97875.59
2022-08-10T07:48:40.768Z,97871.13
2022-08-10T07:54:06.065Z,97866.97
2022-08-10T07:59:37.816Z,97871.94
2022-08-10T08:05:02.871Z,97868.09
2022-08-10T08:10:27.064Z,97873.81
2022-08-10T08:16:20.840Z,97871.66
2022-08-10T08:24:05.538Z,97872.69
2022-08-10T08:27:16.970Z,97877.81
2022-08-10T08:32:41.173Z,97863.06
2022-08-10T08:38:32.798Z,97860.44
2022-08-10T08:44:19.966Z,97860.22
2022-08-10T08:50:08.951Z,97867.84
2022-08-10T08:56:05.619Z,97865.34
2022-08-10T09:01:38.277Z,97871.25
2022-08-10T09:08:00.465Z,97854.56
2022-08-10T09:13:05.079Z,97850.56
2022-08-10T09:18:37.021Z,97852.81
2022-08-10T09:24:06.341Z,97850.16
2022-08-10T09:29:31.285Z,97858.44
2022-08-10T09:36:20.170Z,97850.84
2022-08-10T09:41:12.277Z,97853.28
2022-08-10T09:46:46.661Z,97851.25
2022-08-10T09:52:24.772Z,97849.22
2022-08-10T09:58:23.439Z,97842.66
2022-08-10T10:03:59.794Z,97839.16
2022-08-10T10:09:48.346Z,97830.94
2022-08-10T10:15:24.866Z,97843.03
2022-08-10T10:21:51.323Z,97829.94
2022-08-10T10:26:59.984Z,97829.94
2022-08-10T10:32:45.256Z,97828.13
2022-08-10T10:38:09.156Z,97819.94
2022-08-10T10:43:59.814Z,97815.41
2022-08-10T10:50:03.688Z,97808.44
2022-08-10T10:56:13.501Z,97814.78
2022-08-10T11:01:52.800Z,97805.94
2022-08-10T11:07:31.690Z,97815.59
2022-08-10T11:14:25.370Z,97807.19
2022-08-10T11:19:07.737Z,97818.06
2022-08-10T11:24:52.758Z,97816.44
2022-08-10T11:30:19.290Z,97805.13
2022-08-10T11:35:53.709Z,97810.47
2022-08-10T11:42:10.070Z,97801.63
2022-08-10T11:47:44.989Z,97793.84
2022-08-10T11:53:17.927Z,97793.22
2022-08-10T11:59:01.822Z,97783.19
2022-08-10T12:04:42.167Z,97777.47
2022-08-10T12:10:13.101Z,97782.97
2022-08-10T12:15:43.606Z,97785.88
2022-08-10T12:21:10.108Z,97778.88
2022-08-10T12:26:55.553Z,97767.59
2022-08-10T12:32:27.264Z,97763.50
2022-08-10T12:38:07.096Z,97764.72
2022-08-10T12:44:06.485Z,97756.69
2022-08-10T12:50:29.938Z,97743.59
2022-08-10T12:55:39.915Z,97746.06
2022-08-10T13:01:16.441Z,97737.63
2022-08-10T13:06:46.166Z,97732.75
2022-08-10T13:12:38.304Z,97739.09
2022-08-10T13:17:59.432Z,97736.63
2022-08-10T13:23:30.023Z,97738.28
2022-08-10T13:29:01.996Z,97729.66
2022-08-10T13:34:43.652Z,97727.78
2022-08-10T13:40:10.259Z,97731.50
2022-08-10T13:45:31.769Z,97722.50
2022-08-10T13:50:58.482Z,97713.03
2022-08-10T13:56:21.450Z,97701.75
2022-08-10T14:01:50.768Z,97687.41
2022-08-10T14:07:12.420Z,97685.31
2022-08-10T14:12:40.617Z,97689.44
2022-08-10T14:18:03.956Z,97687.56
2022-08-10T14:23:25.001Z,97676.72
2022-08-10T14:28:54.693Z,97667.09
2022-08-10T14:34:18.211Z,97670.97
2022-08-10T14:39:55.264Z,97660.91
2022-08-10T14:45:28.013Z,97670.56
2022-08-10T14:50:55.902Z,97653.53
2022-08-10T14:56:24.604Z,97651.25
2022-08-10T15:02:00.835Z,97649.63
2022-08-10T15:07:30.364Z,97647.78
2022-08-10T15:12:53.306Z,97641.22
2022-08-10T15:18:14.935Z,97621.75
2022-08-10T15:24:05.364Z,97630.97
2022-08-10T15:29:24.033Z,97635.91
2022-08-10T15:35:06.810Z,97630.16
2022-08-10T15:40:35.996Z,97631.41
2022-08-10T15:46:17.205Z,97642.94
2022-08-10T15:52:02.178Z,97636.16
2022-08-10T15:57:27.672Z,97631.47
2022-08-10T16:02:58.202Z,97621.81
2022-08-10T16:08:36.160Z,97622.44
2022-08-10T16:14:23.447Z,97621.44
2022-08-10T16:19:51.338Z,97622.22
2022-08-10T16:25:15.531Z,97623.47
2022-08-10T16:30:59.306Z,97616.09
2022-08-10T16:36:21.448Z,97614.03
2022-08-10T16:42:04.219Z,97610.75
2022-08-10T16:47:27.591Z,97616.50
2022-08-10T16:52:52.374Z,97616.47
2022-08-10T16:58:15.527Z,97610.53
2022-08-10T17:04:06.480Z,97613.81
2022-08-10T17:09:34.423Z,97608.28
2022-08-10T17:15:09.422Z,97606.84
2022-08-10T17:20:38.272Z,97605.19
2022-08-10T17:26:02.970Z,97603.16
2022-08-10T17:31:54.145Z,97607.84
2022-08-10T17:37:20.011Z,97605.81
2022-08-10T17:42:44.711Z,97603.75
2022-08-10T17:48:08.263Z,97606.59
2022-08-10T17:53:39.985Z,97611.91
2022-08-10T17:59:11.498Z,97613.53
2022-08-10T18:04:41.988Z,97612.66
2022-08-10T18:10:05.770Z,97614.66
2022-08-10T18:15:28.772Z,97620.19
2022-08-10T18:20:53.804Z,97626.25
2022-08-10T18:26:19.369Z,97623.53
2022-08-10T18:31:43.680Z,97631.69
2022-08-10T18:37:07.987Z,97627.78
2022-08-10T18:42:41.682Z,97626.56
2022-08-10T18:48:09.534Z,97631.41
2022-08-10T18:53:50.663Z,97636.06
2022-08-10T18:59:11.068Z,97635.13
2022-08-10T19:05:30.942Z,97638.75
2022-08-10T19:11:01.597Z,97641.53
2022-08-10T19:16:47.965Z,97645.00
2022-08-10T19:22:14.593Z,97640.44
2022-08-10T19:27:40.119Z,97654.41
2022-08-10T19:33:25.566Z,97650.88
2022-08-10T19:39:19.940Z,97650.38
2022-08-10T19:44:55.045Z,97652.97
2022-08-10T19:50:29.455Z,97662.56
2022-08-10T19:56:32.991Z,97656.16
2022-08-10T20:01:56.547Z,97653.81
2022-08-10T20:07:36.329Z,97656.94
2022-08-10T20:13:13.665Z,97654.72
2022-08-10T20:18:43.374Z,97650.97
2022-08-10T20:24:16.340Z,97652.72
2022-08-10T20:29:58.995Z,97652.88
2022-08-10T20:35:51.853Z,97651.38
2022-08-10T20:41:51.757Z,97651.72
2022-08-10T20:47:22.539Z,97652.22
2022-08-10T20:52:45.538Z,97656.25
2022-08-10T20:58:31.748Z,97650.81
2022-08-10T21:03:58.684Z,97656.38
2022-08-10T21:09:58.142Z,97649.72
2022-08-10T21:15:45.975Z,97644.22
2022-08-10T21:21:37.740Z,97645.69
2022-08-10T21:27:33.353Z,97647.91
2022-08-10T21:33:03.463Z,97640.16
2022-08-10T21:38:45.560Z,97642.03
2022-08-10T21:44:39.254Z,97641.59
2022-08-10T21:50:27.428Z,97640.88
2022-08-10T21:56:45.185Z,97657.03
2022-08-10T22:08:30.447Z,97668.88
2022-08-10T22:14:11.129Z,97676.19
2022-08-10T22:19:58.971Z,97668.69
2022-08-10T22:25:53.488Z,97672.13
2022-08-10T22:32:26.762Z,97662.53
2022-08-10T22:38:08.865Z,97664.38
2022-08-10T22:43:50.963Z,97656.38
2022-08-10T22:49:13.356Z,97658.25
2022-08-10T22:55:11.881Z,97652.88
2022-08-10T23:00:33.251Z,97655.81
2022-08-10T23:06:08.422Z,97657.44
2022-08-10T23:11:35.383Z,97661.63
2022-08-10T23:17:15.142Z,97653.44
2022-08-10T23:22:38.438Z,97653.94
2022-08-10T23:28:03.111Z,97650.94
2022-08-10T23:33:37.385Z,97647.31
2022-08-10T23:39:25.643Z,97657.22
2022-08-10T23:44:47.527Z,97645.06
2022-08-10T23:50:11.206Z,97645.50
2022-08-10T23:55:49.010Z,97653.00
